createdAt,value
2023-04-23T00:02:04.617Z,46.43
2023-04-23T00:04:41.659Z,46.48
2023-04-23T00:07:16.701Z,46.34
2023-04-23T00:09:52.397Z,46.33
2023-04-23T00:12:27.272Z,46.28
2023-04-23T00:15:02.003Z,46.36
2023-04-23T00:17:35.772Z,46.31
2023-04-23T00:20:12.109Z,46.41
2023-04-23T00:22:45.764Z,46.62
2023-04-23T00:25:19.231Z,46.49
2023-04-23T00:27:52.754Z,46.31
2023-04-23T00:30:26.610Z,46.65
2023-04-23T00:33:00.480Z,46.76
2023-04-23T00:35:34.193Z,46.82
2023-04-23T00:38:07.527Z,46.80
2023-04-23T00:40:41.532Z,46.50
2023-04-23T00:43:15.810Z,46.36
2023-04-23T00:45:49.509Z,46.39
2023-04-23T00:48:23.832Z,46.29
2023-04-23T00:51:05.589Z,46.21
2023-04-23T00:53:39.407Z,46.24
2023-04-23T00:56:13.509Z,46.23
2023-04-23T00:58:48.104Z,46.32
2023-04-23T01:01:22.420Z,46.34
2023-04-23T01:03:57.261Z,46.43
2023-04-23T01:06:32.387Z,46.38
2023-04-23T01:09:07.001Z,46.51
2023-04-23T01:11:41.743Z,46.55
2023-04-23T01:14:14.999Z,46.70
2023-04-23T01:16:48.706Z,46.72
2023-04-23T01:19:22.996Z,46.73
2023-04-23T01:22:01.472Z,46.76
2023-04-23T01:24:35.270Z,46.93
2023-04-23T01:27:09.769Z,47.01
2023-04-23T01:29:44.044Z,46.97
2023-04-23T01:32:18.886Z,47.06
2023-04-23T01:34:54.689Z,47.10
2023-04-23T01:37:29.305Z,47.20
2023-04-23T01:40:03.349Z,47.19
2023-04-23T01:42:37.596Z,47.36
2023-04-23T01:45:12.942Z,47.44
2023-04-23T01:47:46.333Z,47.60
2023-04-23T01:50:22.212Z,47.58
2023-04-23T01:52:56.210Z,47.66
2023-04-23T01:55:30.007Z,47.77
2023-04-23T01:58:04.383Z,47.73
2023-04-23T02:00:38.581Z,47.76
2023-04-23T02:03:13.226Z,47.86
2023-04-23T02:05:47.913Z,47.96
2023-04-23T02:08:21.360Z,48.03
2023-04-23T02:10:54.787Z,48.08
2023-04-23T02:13:27.962Z,48.13
2023-04-23T02:16:01.759Z,48.19
2023-04-23T02:18:35.558Z,48.26
2023-04-23T02:21:09.270Z,48.27
2023-04-23T02:23:42.723Z,48.46
2023-04-23T02:26:16.124Z,48.49
2023-04-23T02:28:49.583Z,48.51
2023-04-23T02:31:23.104Z,48.60
2023-04-23T02:33:56.729Z,48.65
2023-04-23T02:36:31.485Z,48.68
2023-04-23T02:39:05.319Z,48.72
2023-04-23T02:41:38.953Z,48.84
2023-04-23T02:44:12.578Z,48.89
2023-04-23T02:46:46.865Z,48.96
2023-04-23T02:49:21.236Z,49.00
2023-04-23T02:51:54.740Z,49.06
2023-04-23T02:54:28.225Z,49.25
2023-04-23T02:57:02.010Z,49.24
2023-04-23T02:59:35.939Z,49.40
2023-04-23T03:02:09.907Z,49.36
2023-04-23T03:04:44.078Z,49.44
2023-04-23T03:07:18.414Z,49.51
2023-04-23T03:09:52.287Z,49.60
2023-04-23T03:12:26.007Z,49.59
2023-04-23T03:14:59.935Z,49.69
2023-04-23T03:17:34.689Z,49.79
2023-04-23T03:20:12.132Z,49.82
2023-04-23T03:22:46.483Z,49.85
2023-04-23T03:25:20.873Z,49.85
2023-04-23T03:27:54.859Z,49.93
2023-04-23T03:30:29.152Z,50.06
2023-04-23T03:33:03.341Z,50.19
2023-04-23T03:35:37.124Z,50.39
2023-04-23T03:38:12.737Z,50.22
2023-04-23T03:40:47.247Z,50.45
2023-04-23T03:43:21.597Z,50.45
2023-04-23T03:46:18.993Z,50.59
2023-04-23T03:48:53.954Z,50.63
2023-04-23T03:51:32.204Z,50.50
2023-04-23T03:54:06.010Z,50.58
2023-04-23T03:57:12.295Z,50.64
2023-04-23T03:59:59.028Z,50.78
2023-04-23T04:02:32.626Z,50.75
2023-04-23T04:05:06.761Z,50.88
2023-04-23T04:07:41.472Z,50.84
2023-04-23T04:10:15.381Z,50.92
2023-04-23T04:12:49.401Z,51.03
2023-04-23T04:15:22.984Z,50.89
2023-04-23T04:17:56.551Z,51.03
2023-04-23T04:20:30.410Z,51.01
2023-04-23T04:23:03.880Z,50.95
2023-04-23T04:25:40.422Z,51.04
2023-04-23T04:28:14.518Z,51.08
2023-04-23T04:30:49.816Z,51.09
2023-04-23T04:33:23.738Z,51.12
2023-04-23T04:35:58.009Z,51.24
2023-04-23T04:38:31.546Z,51.14
2023-04-23T04:41:05.597Z,51.18
2023-04-23T04:43:39.269Z,51.22
2023-04-23T04:46:14.079Z,51.23
2023-04-23T04:48:47.426Z,50.94
2023-04-23T04:51:21.169Z,50.30
2023-04-23T04:53:55.110Z,49.28
2023-04-23T04:56:28.636Z,48.58
2023-04-23T04:59:02.828Z,47.59
2023-04-23T05:01:37.647Z,46.67
2023-04-23T05:04:11.577Z,46.53
2023-04-23T05:06:45.386Z,46.78
2023-04-23T05:09:18.890Z,46.28
2023-04-23T05:11:52.587Z,45.83
2023-04-23T05:14:27.096Z,46.15
2023-04-23T05:17:01.156Z,45.95
2023-04-23T05:19:34.772Z,45.18
2023-04-23T05:22:08.412Z,43.21
2023-04-23T05:24:42.253Z,42.55
2023-04-23T05:27:15.902Z,41.29
2023-04-23T05:29:49.739Z,39.93
2023-04-23T05:32:23.409Z,38.13
2023-04-23T05:34:57.148Z,36.84
2023-04-23T05:37:31.499Z,36.49
2023-04-23T05:40:07.370Z,36.59
2023-04-23T05:42:41.369Z,36.37
2023-04-23T05:45:15.926Z,36.06
2023-04-23T05:47:49.614Z,34.93
2023-04-23T05:50:23.783Z,33.06
2023-04-23T05:52:57.310Z,32.82
2023-04-23T05:55:31.119Z,32.47
2023-04-23T05:58:05.869Z,32.53
2023-04-23T06:00:41.368Z,31.64
2023-04-23T06:03:15.030Z,30.46
2023-04-23T06:05:48.876Z,29.95
2023-04-23T06:08:24.942Z,29.66
2023-04-23T06:10:59.120Z,29.89
2023-04-23T06:13:33.394Z,29.40
2023-04-23T06:16:06.751Z,28.45
2023-04-23T06:18:40.874Z,28.16
2023-04-23T06:21:14.615Z,27.47
2023-04-23T06:23:48.506Z,27.42
2023-04-23T06:26:22.344Z,26.53
2023-04-23T06:28:56.826Z,24.91
2023-04-23T06:31:36.497Z,25.07
2023-04-23T06:34:12.870Z,24.84
2023-04-23T06:36:46.352Z,25.07
2023-04-23T06:39:19.959Z,23.92
2023-04-23T06:41:53.680Z,23.33
2023-04-23T06:44:33.032Z,22.63
2023-04-23T06:47:07.504Z,22.60
2023-04-23T06:49:41.354Z,21.65
2023-04-23T06:52:15.593Z,21.59
2023-04-23T06:54:49.346Z,20.99
2023-04-23T06:57:23.394Z,19.22
2023-04-23T06:59:56.488Z,19.65
2023-04-23T07:02:32.121Z,19.76
2023-04-23T07:05:06.483Z,19.21
2023-04-23T07:07:41.133Z,18.71
2023-04-23T07:10:17.797Z,18.04
2023-04-23T07:12:52.156Z,18.34
2023-04-23T07:15:26.080Z,18.77
2023-04-23T07:17:59.875Z,18.98
2023-04-23T07:20:34.077Z,18.00
2023-04-23T07:23:07.676Z,18.11
2023-04-23T07:25:41.414Z,17.99
2023-04-23T07:28:15.231Z,17.53
2023-04-23T07:30:49.493Z,16.63
2023-04-23T07:33:23.352Z,16.39
2023-04-23T07:35:57.098Z,15.92
2023-04-23T07:38:30.737Z,15.76
2023-04-23T07:41:04.339Z,15.41
2023-04-23T07:43:38.308Z,15.92
2023-04-23T07:46:12.141Z,15.66
2023-04-23T07:48:45.916Z,15.33
2023-04-23T07:51:19.478Z,15.09
2023-04-23T07:53:54.587Z,14.66
2023-04-23T07:56:28.417Z,14.49
2023-04-23T07:59:02.203Z,14.98
2023-04-23T08:01:36.214Z,15.62
2023-04-23T08:04:10.589Z,16.71
2023-04-23T08:06:44.416Z,17.60
2023-04-23T08:09:18.516Z,18.38
2023-04-23T08:11:52.108Z,18.68
2023-04-23T08:14:26.202Z,18.94
2023-04-23T08:16:59.972Z,19.08
2023-04-23T08:19:34.118Z,19.28
2023-04-23T08:22:07.998Z,19.98
2023-04-23T08:24:41.790Z,20.55
2023-04-23T08:27:15.712Z,21.10
2023-04-23T08:29:49.139Z,20.82
2023-04-23T08:32:23.069Z,20.24
2023-04-23T08:34:57.117Z,19.42
2023-04-23T08:37:31.801Z,17.80
2023-04-23T08:40:07.561Z,16.93
2023-04-23T08:42:47.392Z,16.77
2023-04-23T08:45:21.502Z,16.16
2023-04-23T08:47:55.298Z,15.57
2023-04-23T08:50:31.283Z,14.89
2023-04-23T08:53:06.859Z,14.45
2023-04-23T08:55:41.381Z,13.94
2023-04-23T08:58:15.600Z,14.47
2023-04-23T09:00:49.918Z,15.57
2023-04-23T09:03:24.710Z,15.57
2023-04-23T09:05:58.760Z,14.38
2023-04-23T09:08:32.878Z,14.33
2023-04-23T09:11:07.486Z,14.19
2023-04-23T09:13:41.865Z,14.24
2023-04-23T09:16:16.039Z,14.65
2023-04-23T09:18:51.917Z,15.28
2023-04-23T09:21:25.974Z,15.88
2023-04-23T09:23:59.575Z,16.55
2023-04-23T09:26:33.024Z,17.04
2023-04-23T09:29:17.940Z,17.13
2023-04-23T09:31:53.360Z,17.29
2023-04-23T09:34:28.077Z,18.22
2023-04-23T09:37:04.136Z,19.10
2023-04-23T09:39:38.617Z,19.64
2023-04-23T09:42:13.914Z,20.10
2023-04-23T09:44:47.665Z,20.91
2023-04-23T09:47:23.129Z,21.02
2023-04-23T09:49:58.068Z,20.44
2023-04-23T09:52:32.641Z,19.72
2023-04-23T09:55:07.523Z,19.04
2023-04-23T09:57:42.635Z,18.09
2023-04-23T10:00:21.611Z,17.57
2023-04-23T10:02:55.891Z,16.30
2023-04-23T10:05:49.764Z,15.23
2023-04-23T10:08:25.154Z,14.67
2023-04-23T10:11:13.520Z,14.86
2023-04-23T10:13:53.164Z,14.95
2023-04-23T10:16:35.595Z,14.73
2023-04-23T10:19:15.844Z,14.78
2023-04-23T10:24:31.261Z,15.05
2023-04-23T10:27:05.769Z,15.42
2023-04-23T10:29:40.623Z,15.72
2023-04-23T10:32:16.021Z,15.63
2023-04-23T10:34:53.334Z,15.56
2023-04-23T10:37:28.187Z,15.56
2023-04-23T10:40:09.702Z,16.23
2023-04-23T10:42:45.512Z,17.16
2023-04-23T10:45:24.715Z,17.88
2023-04-23T10:48:00.508Z,18.42
2023-04-23T10:50:42.946Z,18.80
2023-04-23T10:53:27.926Z,19.07
2023-04-23T10:56:10.969Z,18.84
2023-04-23T10:58:53.644Z,18.41
2023-04-23T11:01:30.808Z,17.82
2023-04-23T11:04:24.647Z,17.14
2023-04-23T11:07:00.523Z,16.99
2023-04-23T11:09:39.034Z,16.97
2023-04-23T11:12:16.063Z,16.48
2023-04-23T11:14:54.980Z,15.15
2023-04-23T11:18:04.225Z,14.87
2023-04-23T11:20:39.263Z,14.64
2023-04-23T11:23:34.306Z,14.49
2023-04-23T11:26:09.265Z,14.42
2023-04-23T11:28:45.386Z,14.87
2023-04-23T11:31:19.132Z,14.40
2023-04-23T11:33:53.455Z,13.70
2023-04-23T11:36:27.940Z,14.00
2023-04-23T11:39:03.392Z,14.52
2023-04-23T11:41:36.926Z,14.63
2023-04-23T11:44:10.547Z,14.91
2023-04-23T11:46:44.784Z,15.08
2023-04-23T11:49:22.752Z,15.02
2023-04-23T11:51:56.545Z,15.51
2023-04-23T11:54:31.578Z,15.59
2023-04-23T11:57:07.175Z,15.39
2023-04-23T11:59:41.351Z,15.92
2023-04-23T12:02:15.204Z,16.12
2023-04-23T12:04:48.854Z,16.07
2023-04-23T12:07:33.823Z,16.09
2023-04-23T12:10:08.516Z,15.82
2023-04-23T12:12:42.128Z,15.02
2023-04-23T12:15:16.237Z,14.80
2023-04-23T12:17:53.636Z,14.73
2023-04-23T12:20:27.076Z,14.66
2023-04-23T12:23:08.685Z,15.00
2023-04-23T12:25:43.713Z,14.82
2023-04-23T12:28:17.783Z,15.10
2023-04-23T12:30:51.229Z,14.87
2023-04-23T12:33:24.796Z,14.63
2023-04-23T12:35:58.747Z,14.44
2023-04-23T12:38:33.143Z,14.54
2023-04-23T12:41:06.983Z,14.27
2023-04-23T12:43:40.369Z,13.88
2023-04-23T12:46:14.234Z,13.96
2023-04-23T12:48:48.053Z,14.28
2023-04-23T12:51:21.910Z,15.15
2023-04-23T12:53:55.950Z,15.02
2023-04-23T12:56:29.998Z,14.69
2023-04-23T12:59:05.415Z,14.58
2023-04-23T13:01:39.400Z,14.94
2023-04-23T13:04:13.088Z,15.14
2023-04-23T13:06:47.215Z,15.49
2023-04-23T13:09:22.161Z,15.92
2023-04-23T13:11:56.552Z,15.98
2023-04-23T13:14:32.153Z,16.32
2023-04-23T13:17:06.772Z,16.67
2023-04-23T13:19:41.035Z,16.76
2023-04-23T13:22:15.205Z,16.93
2023-04-23T13:24:49.322Z,17.48
2023-04-23T13:27:23.089Z,17.90
2023-04-23T13:29:56.962Z,18.30
2023-04-23T13:32:32.635Z,18.59
2023-04-23T13:35:06.789Z,19.00
2023-04-23T13:37:41.571Z,19.31
2023-04-23T13:40:16.115Z,19.81
2023-04-23T13:42:50.699Z,20.13
2023-04-23T13:45:24.474Z,20.30
2023-04-23T13:47:58.411Z,20.64
2023-04-23T13:50:32.090Z,20.85
2023-04-23T13:53:05.741Z,21.02
2023-04-23T13:55:39.480Z,21.28
2023-04-23T13:58:13.394Z,21.42
2023-04-23T14:00:47.514Z,21.80
2023-04-23T14:03:21.982Z,22.08
2023-04-23T14:05:55.912Z,22.27
2023-04-23T14:08:29.569Z,22.12
2023-04-23T14:11:03.311Z,22.24
2023-04-23T14:13:37.039Z,22.21
2023-04-23T14:16:11.029Z,22.16
2023-04-23T14:18:44.788Z,22.36
2023-04-23T14:21:18.447Z,22.43
2023-04-23T14:24:02.808Z,22.44
2023-04-23T14:29:36.364Z,22.78
2023-04-23T14:32:10.328Z,23.26
2023-04-23T14:34:44.263Z,23.19
2023-04-23T14:37:18.825Z,23.38
2023-04-23T14:39:52.378Z,23.35
2023-04-23T14:42:26.437Z,23.07
2023-04-23T14:45:04.022Z,23.31
2023-04-23T14:47:38.051Z,23.54
2023-04-23T14:50:13.115Z,23.79
2023-04-23T14:52:50.903Z,23.62
2023-04-23T14:55:25.511Z,23.85
2023-04-23T14:57:59.105Z,23.99
2023-04-23T15:00:33.569Z,24.10
2023-04-23T15:03:11.505Z,24.12
2023-04-23T15:05:45.230Z,24.38
2023-04-23T15:08:18.904Z,24.44
2023-04-23T15:10:52.721Z,24.39
2023-04-23T15:13:46.211Z,24.44
2023-04-23T15:16:47.454Z,24.66
2023-04-23T15:19:22.477Z,24.68
2023-04-23T15:21:56.046Z,24.67
2023-04-23T15:24:30.388Z,24.84
2023-04-23T15:27:04.365Z,24.91
2023-04-23T15:29:38.827Z,24.77
2023-04-23T15:32:12.396Z,24.98
2023-04-23T15:34:46.602Z,25.12
2023-04-23T15:37:21.394Z,25.05
2023-04-23T15:39:54.982Z,24.99
2023-04-23T15:42:28.960Z,24.95
2023-04-23T15:45:02.596Z,25.03
2023-04-23T15:47:36.675Z,25.08
2023-04-23T15:50:13.248Z,25.06
2023-04-23T15:52:49.255Z,25.23
2023-04-23T15:55:25.145Z,25.32
2023-04-23T15:58:02.139Z,25.47
2023-04-23T16:00:39.780Z,25.49
2023-04-23T16:03:15.574Z,25.38
2023-04-23T16:05:51.471Z,25.47
2023-04-23T16:08:25.718Z,25.52
2023-04-23T16:11:01.149Z,25.72
2023-04-23T16:13:35.188Z,25.89
2023-04-23T16:16:09.603Z,25.99
2023-04-23T16:18:43.588Z,26.17
2023-04-23T16:21:18.124Z,26.21
2023-04-23T16:23:52.729Z,26.36
2023-04-23T16:26:27.903Z,26.31
2023-04-23T16:31:39.107Z,26.44
2023-04-23T16:34:13.256Z,26.29
2023-04-23T16:36:49.195Z,26.45
2023-04-23T16:39:29.261Z,26.36
2023-04-23T16:42:02.583Z,26.45
2023-04-23T16:44:38.272Z,26.47
2023-04-23T16:47:14.123Z,26.60
2023-04-23T16:49:52.306Z,26.78
2023-04-23T16:52:27.541Z,26.87
2023-04-23T16:55:03.388Z,27.01
2023-04-23T16:57:39.916Z,27.10
2023-04-23T17:00:17.093Z,27.06
2023-04-23T17:02:52.427Z,27.22
2023-04-23T17:05:31.195Z,27.34
2023-04-23T17:08:11.779Z,27.38
2023-04-23T17:10:50.357Z,27.40
2023-04-23T17:13:26.605Z,27.61
2023-04-23T17:16:04.898Z,27.81
2023-04-23T17:18:39.420Z,27.79
2023-04-23T17:21:14.117Z,27.82
2023-04-23T17:23:49.544Z,27.89
2023-04-23T17:26:24.962Z,28.11
2023-04-23T17:29:02.828Z,28.23
2023-04-23T17:31:38.625Z,28.34
2023-04-23T17:34:15.995Z,28.47
2023-04-23T17:36:52.034Z,28.52
2023-04-23T17:39:30.190Z,28.50
2023-04-23T17:42:04.534Z,28.67
2023-04-23T17:44:41.117Z,28.85
2023-04-23T17:47:25.566Z,28.91
2023-04-23T17:50:01.113Z,29.04
2023-04-23T17:52:35.864Z,29.05
2023-04-23T17:55:12.362Z,29.13
2023-04-23T17:57:51.493Z,29.31
2023-04-23T18:00:30.235Z,29.35
2023-04-23T18:03:08.226Z,29.59
2023-04-23T18:08:34.000Z,29.62
2023-04-23T18:11:15.999Z,29.70
2023-04-23T18:13:53.903Z,29.73
2023-04-23T18:16:30.359Z,29.78
2023-04-23T18:19:04.865Z,29.81
2023-04-23T18:21:39.985Z,29.91
2023-04-23T18:24:15.734Z,29.96
2023-04-23T18:26:52.424Z,30.13
2023-04-23T18:29:32.800Z,30.21
2023-04-23T18:32:11.065Z,30.29
2023-04-23T18:34:52.962Z,30.42
2023-04-23T18:37:51.683Z,30.32
2023-04-23T18:40:32.585Z,30.37
2023-04-23T18:43:08.249Z,30.44
2023-04-23T18:45:44.013Z,30.46
2023-04-23T18:48:48.797Z,30.49
2023-04-23T18:51:34.199Z,30.46
2023-04-23T18:54:17.625Z,30.58
2023-04-23T18:56:57.781Z,30.62
2023-04-23T18:59:38.174Z,30.77
2023-04-23T19:02:18.708Z,30.90
2023-04-23T19:05:04.819Z,30.82
2023-04-23T19:07:55.455Z,30.88
2023-04-23T19:10:31.978Z,31.04
2023-04-23T19:13:07.396Z,31.19
2023-04-23T19:15:46.481Z,31.17
2023-04-23T19:18:22.780Z,31.25
2023-04-23T19:21:06.067Z,31.41
2023-04-23T19:23:45.481Z,31.46
2023-04-23T19:26:22.722Z,31.54
2023-04-23T19:29:03.571Z,31.62
2023-04-23T19:31:42.197Z,31.73
2023-04-23T19:34:34.701Z,31.76
2023-04-23T19:37:09.914Z,31.82
2023-04-23T19:39:48.605Z,31.86
2023-04-23T19:42:25.828Z,31.96
2023-04-23T19:45:13.113Z,32.09
2023-04-23T19:47:54.385Z,32.12
2023-04-23T19:50:35.352Z,32.14
2023-04-23T19:53:12.215Z,32.31
2023-04-23T19:55:59.969Z,32.37
2023-04-23T19:59:00.450Z,32.53
2023-04-23T20:01:44.834Z,32.66
2023-04-23T20:04:22.187Z,32.88
2023-04-23T20:06:59.906Z,32.93
2023-04-23T20:09:38.892Z,32.98
2023-04-23T20:12:17.284Z,33.16
2023-04-23T20:14:52.099Z,33.25
2023-04-23T20:17:30.668Z,33.40
2023-04-23T20:20:07.383Z,33.53
2023-04-23T20:22:44.402Z,33.58
2023-04-23T20:25:22.996Z,33.71
2023-04-23T20:28:00.492Z,33.94
2023-04-23T20:30:34.292Z,33.93
2023-04-23T20:33:08.901Z,34.05
2023-04-23T20:35:45.549Z,34.09
2023-04-23T20:38:20.919Z,34.30
2023-04-23T20:40:54.850Z,34.32
2023-04-23T20:43:29.909Z,34.41
2023-04-23T20:46:07.176Z,34.48
2023-04-23T20:48:44.092Z,34.64
2023-04-23T20:51:18.418Z,34.61
2023-04-23T20:53:52.516Z,34.77
2023-04-23T20:56:26.739Z,34.94
2023-04-23T20:59:00.569Z,35.08
2023-04-23T21:01:34.376Z,35.13
2023-04-23T21:04:11.190Z,35.26
2023-04-23T21:06:44.999Z,35.47
2023-04-23T21:09:18.532Z,35.53
2023-04-23T21:11:53.080Z,35.80
2023-04-23T21:14:26.972Z,35.95
2023-04-23T21:17:00.500Z,36.12
2023-04-23T21:19:34.094Z,36.32
2023-04-23T21:22:08.406Z,36.41
2023-04-23T21:24:41.918Z,36.63
2023-04-23T21:27:22.205Z,36.82
2023-04-23T21:29:56.560Z,36.97
2023-04-23T21:32:30.448Z,37.10
2023-04-23T21:35:04.179Z,37.23
2023-04-23T21:37:38.334Z,37.35
2023-04-23T21:40:13.563Z,37.45
2023-04-23T21:42:47.961Z,37.86
2023-04-23T21:45:21.931Z,38.29
2023-04-23T21:47:57.223Z,38.51
2023-04-23T21:50:32.854Z,38.72
2023-04-23T21:53:07.276Z,38.79
2023-04-23T21:55:40.797Z,38.86
2023-04-23T21:58:17.652Z,38.77
2023-04-23T22:00:53.333Z,38.81
2023-04-23T22:03:36.342Z,38.87
2023-04-23T22:06:13.276Z,39.06
2023-04-23T22:08:47.240Z,39.08
2023-04-23T22:11:20.888Z,39.01
2023-04-23T22:13:54.589Z,39.20
2023-04-23T22:16:31.455Z,39.27
2023-04-23T22:19:05.280Z,39.32
2023-04-23T22:21:39.012Z,39.38
2023-04-23T22:24:13.194Z,39.39
2023-04-23T22:26:46.924Z,39.54
2023-04-23T22:29:20.179Z,39.86
2023-04-23T22:31:53.575Z,39.92
2023-04-23T22:34:27.145Z,40.00
2023-04-23T22:37:00.901Z,40.10
2023-04-23T22:39:34.673Z,40.22
2023-04-23T22:42:08.796Z,40.36
2023-04-23T22:44:42.109Z,40.52
2023-04-23T22:47:15.305Z,40.72
2023-04-23T22:49:48.717Z,40.77
2023-04-23T22:52:22.475Z,40.85
2023-04-23T22:54:57.127Z,41.06
2023-04-23T22:57:31.063Z,41.19
2023-04-23T23:00:07.801Z,41.27
2023-04-23T23:02:41.938Z,41.47
2023-04-23T23:05:16.021Z,41.57
2023-04-23T23:07:49.527Z,41.75
2023-04-23T23:10:23.494Z,41.77
2023-04-23T23:12:57.551Z,41.75
2023-04-23T23:15:31.029Z,41.84
2023-04-23T23:18:04.501Z,42.03
2023-04-23T23:20:39.554Z,42.13
2023-04-23T23:23:13.163Z,42.26
2023-04-23T23:25:46.568Z,42.43
2023-04-23T23:28:19.961Z,42.48
2023-04-23T23:30:54.050Z,42.63
2023-04-23T23:33:28.004Z,42.67
2023-04-23T23:36:01.589Z,42.74
2023-04-23T23:38:35.284Z,42.87
2023-04-23T23:41:09.265Z,42.99
2023-04-23T23:43:43.333Z,43.02
2023-04-23T23:46:18.568Z,43.23
2023-04-23T23:48:52.606Z,43.36
2023-04-23T23:51:26.296Z,43.46
2023-04-23T23:54:00.471Z,43.42
2023-04-23T23:56:33.925Z,43.71
2023-04-23T23:59:07.650Z,43.82
